Time;durP1;ratioP1;P1;durP2;ratioP2;P2;SDS_P1;SDS_P2;PMS_P1;PMS_P2;Temp;Humidity;BMP_temperature;BMP_pressure;BME280_temperature;BME280_humidity;BME280_pressure;Samples;Min_cycle;Max_cycle;Signal;HPM_P1;HPM_P2
2022/10/22 00:02:28;;;;;;;3.78;2.88;;;16.30;69.80;;;;;;4802170;29;20047;-50
2022/10/22 00:04:56;;;;;;;4.20;2.75;;;16.30;70.10;;;;;;4800997;29;20051;-50
2022/10/22 00:07:23;;;;;;;2.90;2.30;;;16.30;70.10;;;;;;4808133;29;20051;-50
2022/10/22 00:09:50;;;;;;;4.47;2.45;;;16.20;69.90;;;;;;4803339;29;20043;-51
2022/10/22 00:12:20;;;;;;;2.58;2.38;;;16.20;69.80;;;;;;4803407;29;20097;-49
2022/10/22 00:14:50;;;;;;;3.63;2.22;;;16.20;69.70;;;;;;4804637;29;20038;-53
2022/10/22 00:17:18;;;;;;;4.00;2.13;;;16.20;69.70;;;;;;4817282;29;20042;-52
2022/10/22 00:19:46;;;;;;;3.78;2.60;;;16.10;69.50;;;;;;4806295;29;20159;-49
2022/10/22 00:22:13;;;;;;;3.90;2.17;;;16.10;69.50;;;;;;4800349;29;20051;-52
2022/10/22 00:24:42;;;;;;;3.60;2.70;;;16.10;69.60;;;;;;4804729;29;20053;-52
2022/10/22 00:27:10;;;;;;;2.67;2.22;;;16.10;69.70;;;;;;4802400;29;20061;-52
2022/10/22 00:29:37;;;;;;;4.47;2.80;;;16.00;69.60;;;;;;4803773;29;20039;-49
2022/10/22 00:32:06;;;;;;;4.57;2.78;;;16.00;69.80;;;;;;4804202;29;20047;-48
2022/10/22 00:34:35;;;;;;;3.28;2.25;;;16.00;69.90;;;;;;4804334;29;20050;-49
2022/10/22 00:37:02;;;;;;;4.45;2.33;;;16.00;70.10;;;;;;4802786;29;20159;-49
2022/10/22 00:39:28;;;;;;;2.78;2.35;;;16.00;69.90;;;;;;4804295;29;20042;-49
2022/10/22 00:41:57;;;;;;;4.65;2.25;;;16.00;70.00;;;;;;4801348;29;20047;-51
2022/10/22 00:45:04;;;;;;;3.92;2.63;;;15.90;69.90;;;;;;4803924;29;20046;-51
2022/10/22 00:47:41;;;;;;;3.50;2.45;;;15.90;69.90;;;;;;4805452;29;20046;-50
2022/10/22 00:50:14;;;;;;;5.60;2.85;;;15.90;69.70;;;;;;4800623;29;20039;-51
2022/10/22 00:52:43;;;;;;;2.95;2.65;;;15.90;69.60;;;;;;4803309;29;20043;-49
2022/10/22 00:55:11;;;;;;;5.25;2.47;;;15.90;69.70;;;;;;4803406;29;20412;-48
2022/10/22 00:57:40;;;;;;;4.43;2.47;;;15.80;69.80;;;;;;4805139;29;20058;-53
2022/10/22 01:00:08;;;;;;;3.40;2.25;;;15.80;69.80;;;;;;4797790;29;20385;-49
2022/10/22 01:02:35;;;;;;;3.13;1.80;;;15.80;69.60;;;;;;4803909;29;20043;-52
2022/10/22 01:05:06;;;;;;;6.22;2.33;;;15.80;69.60;;;;;;4804064;29;20088;-53
2022/10/22 01:07:39;;;;;;;2.95;2.03;;;15.80;69.70;;;;;;4799456;29;20066;-50
2022/10/22 01:10:20;;;;;;;3.65;2.33;;;15.70;69.70;;;;;;4803484;29;20062;-52
2022/10/22 01:13:14;;;;;;;2.78;2.10;;;15.70;69.70;;;;;;4804421;29;20057;-53
2022/10/22 01:15:51;;;;;;;3.60;1.95;;;15.70;70.00;;;;;;4801660;29;20058;-52
2022/10/22 01:18:40;;;;;;;5.95;2.35;;;15.70;69.80;;;;;;4799272;29;20051;-51
2022/10/22 01:21:44;;;;;;;4.32;2.60;;;15.70;70.00;;;;;;4802647;29;20057;-53
2022/10/22 01:24:22;;;;;;;4.78;2.17;;;15.70;70.20;;;;;;4785446;30;20059;-50
2022/10/22 01:27:08;;;;;;;3.78;1.88;;;15.60;70.00;;;;;;4796958;29;20423;-49
2022/10/22 01:29:55;;;;;;;3.80;2.00;;;15.60;70.10;;;;;;4803327;29;20043;-52
2022/10/22 01:32:25;;;;;;;4.93;2.17;;;15.60;70.30;;;;;;4803987;29;20051;-51
2022/10/22 01:34:57;;;;;;;4.63;2.60;;;15.60;69.90;;;;;;4800282;29;20049;-52
2022/10/22 01:37:27;;;;;;;3.85;2.80;;;15.50;69.80;;;;;;4797534;29;20039;-51
2022/10/22 01:39:56;;;;;;;2.88;2.25;;;15.50;69.70;;;;;;4803010;29;20051;-52
2022/10/22 01:42:25;;;;;;;3.38;2.20;;;15.50;69.80;;;;;;4803156;29;20534;-50
2022/10/22 01:44:52;;;;;;;4.20;2.40;;;15.50;70.00;;;;;;4803225;29;20058;-52
2022/10/22 01:47:31;;;;;;;4.40;2.13;;;15.50;70.10;;;;;;4797416;29;20117;-49
2022/10/22 01:50:22;;;;;;;4.32;2.53;;;15.40;70.00;;;;;;4797758;29;20039;-51
2022/10/22 01:52:58;;;;;;;4.45;2.42;;;15.40;70.00;;;;;;4785273;29;20044;-50
2022/10/22 01:55:49;;;;;;;2.58;2.20;;;15.40;70.10;;;;;;4792827;29;20080;-50
2022/10/22 01:58:43;;;;;;;4.13;2.30;;;15.40;70.00;;;;;;4801371;29;20400;-49
2022/10/22 02:01:37;;;;;;;4.32;2.50;;;15.40;70.50;;;;;;4802559;29;20055;-52
2022/10/22 02:04:26;;;;;;;4.20;2.50;;;15.30;70.70;;;;;;4800358;29;20047;-49
2022/10/22 02:06:58;;;;;;;2.38;1.80;;;15.30;71.10;;;;;;4806221;29;20045;-50
2022/10/22 02:09:27;;;;;;;5.33;2.83;;;15.30;70.90;;;;;;4803195;29;20419;-50
2022/10/22 02:11:56;;;;;;;2.88;2.05;;;15.30;70.90;;;;;;4800731;29;20299;-52
2022/10/22 02:14:26;;;;;;;6.38;2.30;;;15.30;70.70;;;;;;4793531;29;20100;-49
2022/10/22 02:16:53;;;;;;;4.47;2.50;;;15.20;70.40;;;;;;4803581;29;20043;-51
2022/10/22 02:19:29;;;;;;;2.45;2.25;;;15.20;70.30;;;;;;4802950;29;20697;-50
2022/10/22 02:21:59;;;;;;;4.53;2.47;;;15.20;70.30;;;;;;4800068;29;20054;-49
2022/10/22 02:24:28;;;;;;;4.93;2.20;;;15.20;70.40;;;;;;4801404;29;20074;-50
2022/10/22 02:27:08;;;;;;;4.93;2.50;;;15.20;70.60;;;;;;4799527;29;20035;-48
2022/10/22 02:29:54;;;;;;;4.18;2.95;;;15.20;71.10;;;;;;4803216;29;20046;-52
2022/10/22 02:32:27;;;;;;;2.80;2.10;;;15.20;71.50;;;;;;4801411;29;20061;-48
2022/10/22 02:34:55;;;;;;;7.22;2.55;;;15.20;71.40;;;;;;4798180;29;20043;-53
2022/10/22 02:37:26;;;;;;;3.42;2.45;;;15.20;71.60;;;;;;4803277;29;20170;-49
2022/10/22 02:39:55;;;;;;;4.40;2.40;;;15.10;71.50;;;;;;4802525;29;20063;-50
2022/10/22 02:42:29;;;;;;;2.45;2.13;;;15.20;71.40;;;;;;4800818;29;20055;-50
2022/10/22 02:44:56;;;;;;;6.80;2.03;;;15.10;71.10;;;;;;4798067;29;20070;-52
2022/10/22 02:47:24;;;;;;;5.13;2.38;;;15.10;71.00;;;;;;4802479;29;20078;-49
2022/10/22 02:49:51;;;;;;;4.20;1.88;;;15.10;71.00;;;;;;4802761;29;20042;-49
2022/10/22 02:52:23;;;;;;;4.47;2.00;;;15.10;71.00;;;;;;4795945;29;20077;-48
2022/10/22 02:54:52;;;;;;;3.03;2.40;;;15.10;71.00;;;;;;4801793;29;20069;-52
2022/10/22 02:57:20;;;;;;;6.30;3.00;;;15.10;71.20;;;;;;4802018;29;20812;-50
2022/10/22 02:59:52;;;;;;;7.78;3.10;;;15.10;71.20;;;;;;4800804;29;20051;-50
2022/10/22 03:02:19;;;;;;;2.97;2.45;;;15.10;71.40;;;;;;4797394;29;20065;-48
2022/10/22 03:04:45;;;;;;;3.47;2.60;;;15.10;71.40;;;;;;4802331;29;20452;-50
2022/10/22 03:07:13;;;;;;;3.50;2.70;;;15.00;71.40;;;;;;4813552;29;20042;-48
2022/10/22 03:09:42;;;;;;;2.95;2.15;;;15.10;71.60;;;;;;4817500;29;20050;-50
2022/10/22 03:12:15;;;;;;;6.38;2.50;;;15.10;71.70;;;;;;4801405;29;20041;-50
2022/10/22 03:14:42;;;;;;;4.82;2.85;;;15.00;71.70;;;;;;4802789;29;20043;-51
2022/10/22 03:17:09;;;;;;;9.80;2.70;;;15.00;71.60;;;;;;4814322;29;20049;-51
2022/10/22 03:19:35;;;;;;;5.10;2.90;;;15.10;71.80;;;;;;4808891;29;20067;-51
2022/10/22 03:22:08;;;;;;;3.65;2.45;;;15.00;71.90;;;;;;4798095;29;20066;-52
2022/10/22 03:24:40;;;;;;;2.55;2.20;;;15.00;72.20;;;;;;4801986;29;20473;-51
2022/10/22 03:27:09;;;;;;;5.00;2.10;;;15.00;72.60;;;;;;4799514;29;20045;-49
2022/10/22 03:29:38;;;;;;;3.67;2.28;;;15.00;72.30;;;;;;4796608;29;20046;-53
2022/10/22 03:32:11;;;;;;;3.45;2.70;;;15.00;72.40;;;;;;4801644;29;20049;-52
2022/10/22 03:34:37;;;;;;;5.60;2.55;;;15.00;72.60;;;;;;4801811;29;20057;-52
2022/10/22 03:37:04;;;;;;;4.10;2.40;;;15.00;72.70;;;;;;4803080;29;20409;-51
2022/10/22 03:39:36;;;;;;;4.10;2.53;;;15.00;72.90;;;;;;4797057;29;20047;-51
2022/10/22 03:42:06;;;;;;;4.13;2.90;;;15.00;73.90;;;;;;4801854;29;20070;-49
2022/10/22 03:44:35;;;;;;;4.82;2.92;;;15.00;73.30;;;;;;4801531;29;20053;-50
2022/10/22 03:47:03;;;;;;;5.10;2.95;;;15.00;73.10;;;;;;4802109;29;20141;-51
2022/10/22 03:49:30;;;;;;;6.85;2.03;;;15.00;72.70;;;;;;4811002;29;20050;-53
2022/10/22 03:51:57;;;;;;;4.28;2.35;;;15.00;72.30;;;;;;4802054;29;20122;-52
2022/10/22 03:54:24;;;;;;;6.82;2.45;;;15.00;72.10;;;;;;4801688;29;20047;-53
2022/10/22 03:56:50;;;;;;;4.30;2.38;;;14.90;71.80;;;;;;4802236;29;20043;-53
2022/10/22 03:59:17;;;;;;;2.83;2.60;;;14.90;72.00;;;;;;4798477;29;20126;-48
2022/10/22 04:01:47;;;;;;;4.00;2.67;;;14.90;72.60;;;;;;4804946;29;20417;-49
2022/10/22 04:04:16;;;;;;;3.90;2.50;;;14.90;73.00;;;;;;4805258;29;20046;-51
2022/10/22 04:06:43;;;;;;;5.28;2.90;;;14.90;73.30;;;;;;4799014;29;20119;-51
2022/10/22 04:09:12;;;;;;;3.70;2.88;;;14.90;73.40;;;;;;4803192;29;20046;-52
2022/10/22 04:11:50;;;;;;;4.95;2.60;;;14.90;73.70;;;;;;4797432;29;20049;-53
2022/10/22 04:14:20;;;;;;;4.53;2.40;;;14.90;73.90;;;;;;4801060;29;20063;-48
2022/10/22 04:16:50;;;;;;;4.10;2.30;;;14.90;74.10;;;;;;4803569;29;20073;-52
2022/10/22 04:19:19;;;;;;;4.47;2.30;;;14.90;74.20;;;;;;4804807;29;20039;-49
2022/10/22 04:21:45;;;;;;;5.18;3.15;;;14.90;74.50;;;;;;4803667;29;20133;-53
2022/10/22 04:24:14;;;;;;;7.32;2.97;;;14.90;75.00;;;;;;4800671;29;20103;-50
2022/10/22 04:26:44;;;;;;;5.32;3.10;;;15.00;75.20;;;;;;4796148;29;20077;-53
2022/10/22 04:29:12;;;;;;;4.43;2.92;;;15.00;76.00;;;;;;4805598;29;20073;-49
2022/10/22 04:31:42;;;;;;;9.10;2.92;;;15.10;75.50;;;;;;4804302;29;20053;-51
2022/10/22 04:34:12;;;;;;;3.05;2.65;;;15.10;75.70;;;;;;4802340;29;20920;-53
2022/10/22 04:36:39;;;;;;;4.43;3.20;;;15.10;75.90;;;;;;4801431;29;20035;-50
2022/10/22 04:39:09;;;;;;;4.90;2.80;;;15.20;76.20;;;;;;4803328;29;20046;-50
2022/10/22 04:41:37;;;;;;;5.43;3.10;;;15.20;76.30;;;;;;4803114;29;20054;-50
2022/10/22 04:44:05;;;;;;;6.70;3.30;;;15.30;76.50;;;;;;4801651;29;20046;-48
2022/10/22 04:46:34;;;;;;;3.78;2.33;;;15.30;76.60;;;;;;4803085;29;20057;-52
2022/10/22 04:49:08;;;;;;;4.55;3.08;;;15.40;76.80;;;;;;4801615;29;20117;-53
2022/10/22 04:51:34;;;;;;;3.95;2.78;;;15.40;77.00;;;;;;4803173;29;20132;-49
2022/10/22 04:54:03;;;;;;;5.82;2.92;;;15.40;77.00;;;;;;4799593;29;20127;-51
2022/10/22 04:56:31;;;;;;;7.03;2.70;;;15.50;77.00;;;;;;4803269;29;20050;-50
2022/10/22 04:59:04;;;;;;;4.63;2.80;;;15.50;77.10;;;;;;4811550;29;20038;-52
2022/10/22 05:01:37;;;;;;;5.70;2.70;;;15.60;77.40;;;;;;4812177;29;20140;-53
2022/10/22 05:04:11;;;;;;;5.07;3.13;;;15.60;77.40;;;;;;4796173;29;20066;-51
2022/10/22 05:06:38;;;;;;;4.65;2.47;;;15.70;77.30;;;;;;4806929;29;20413;-52
2022/10/22 05:09:09;;;;;;;5.75;3.22;;;15.70;77.20;;;;;;4804354;29;20078;-52
2022/10/22 05:11:40;;;;;;;3.72;2.85;;;15.70;77.40;;;;;;4800392;29;20502;-51
2022/10/22 05:14:08;;;;;;;4.70;3.05;;;15.70;77.40;;;;;;4804523;29;20103;-53
2022/10/22 05:16:46;;;;;;;4.78;2.90;;;15.80;77.30;;;;;;4808114;29;20048;-52
2022/10/22 05:19:17;;;;;;;3.83;2.30;;;15.80;77.40;;;;;;4815299;29;20119;-51
2022/10/22 05:21:44;;;;;;;3.30;2.60;;;15.80;77.50;;;;;;4805262;29;20393;-53
2022/10/22 05:24:12;;;;;;;3.17;2.45;;;15.80;77.30;;;;;;4804061;29;20135;-49
2022/10/22 05:26:38;;;;;;;8.73;4.35;;;15.90;77.50;;;;;;4800800;29;20441;-53
2022/10/22 05:29:05;;;;;;;5.63;4.18;;;15.80;77.40;;;;;;4799797;29;20051;-52
2022/10/22 05:31:32;;;;;;;6.75;4.30;;;15.90;77.50;;;;;;4803703;29;20424;-49
2022/10/22 05:33:59;;;;;;;7.03;3.70;;;15.90;77.50;;;;;;4804136;29;20047;-53
2022/10/22 05:36:26;;;;;;;4.22;2.47;;;16.00;77.50;;;;;;4798612;29;20051;-52
2022/10/22 05:38:53;;;;;;;4.55;2.28;;;15.90;77.40;;;;;;4804186;29;20047;-50
2022/10/22 05:41:22;;;;;;;4.07;2.50;;;16.00;77.40;;;;;;4799463;29;20050;-50
2022/10/22 05:43:50;;;;;;;5.07;2.00;;;16.00;77.50;;;;;;4803958;29;20413;-51
2022/10/22 05:46:22;;;;;;;3.38;1.80;;;16.00;77.30;;;;;;4802879;29;20154;-52
2022/10/22 05:48:50;;;;;;;;;;;16.10;77.30;;;;;;4802666;29;20057;-53
2022/10/22 05:51:20;;;;;;;3.45;1.92;;;16.20;77.80;;;;;;4800888;29;19929;-50
2022/10/22 05:53:56;;;;;;;3.80;1.80;;;16.10;76.60;;;;;;4802022;29;20108;-54
2022/10/22 05:56:24;;;;;;;4.25;1.88;;;16.10;76.70;;;;;;4802315;29;20051;-55
2022/10/22 05:58:51;;;;;;;6.65;2.05;;;16.10;76.50;;;;;;4800683;29;20143;-50
2022/10/22 06:01:20;;;;;;;5.35;1.90;;;16.10;76.50;;;;;;4799496;29;20051;-50
2022/10/22 06:03:48;;;;;;;3.40;2.00;;;16.10;76.70;;;;;;4802479;29;20047;-51
2022/10/22 06:06:34;;;;;;;5.35;1.60;;;16.20;76.60;;;;;;4805870;29;20500;-53
2022/10/22 06:09:14;;;;;;;5.25;1.90;;;16.20;76.80;;;;;;4799205;29;20057;-54
2022/10/22 06:11:41;;;;;;;6.15;2.20;;;16.20;76.90;;;;;;4802085;29;20050;-50
2022/10/22 06:14:08;;;;;;;4.57;1.70;;;16.20;76.50;;;;;;4802318;29;20050;-53
2022/10/22 06:16:38;;;;;;;2.50;2.10;;;16.20;76.60;;;;;;4804352;29;20165;-51
2022/10/22 06:19:08;;;;;;;2.83;1.75;;;16.20;76.60;;;;;;4796182;29;20125;-49
2022/10/22 06:21:39;;;;;;;;;;;16.20;76.60;;;;;;4801394;29;20081;-52
2022/10/22 06:24:06;;;;;;;4.13;1.60;;;16.30;77.10;;;;;;4802160;29;20417;-54
2022/10/22 06:26:35;;;;;;;5.85;1.88;;;16.30;76.00;;;;;;4799481;29;20073;-50
2022/10/22 06:29:01;;;;;;;4.32;1.50;;;16.30;76.00;;;;;;4802383;29;20054;-54
2022/10/22 06:31:35;;;;;;;4.25;1.58;;;16.40;76.10;;;;;;4796020;29;20679;-54
2022/10/22 06:34:06;;;;;;;3.88;1.40;;;16.40;76.10;;;;;;4788770;29;20075;-50
2022/10/22 06:36:33;;;;;;;4.80;2.08;;;16.40;76.20;;;;;;4803231;29;20051;-51
2022/10/22 06:39:00;;;;;;;2.33;1.70;;;16.40;75.90;;;;;;4802897;29;20070;-53
2022/10/22 06:41:27;;;;;;;2.10;1.60;;;16.40;75.80;;;;;;4802755;29;20212;-50
2022/10/22 06:43:56;;;;;;;5.28;1.70;;;16.40;75.70;;;;;;4807543;29;20089;-53
2022/10/22 06:46:24;;;;;;;4.47;1.60;;;16.50;75.70;;;;;;4804462;29;20050;-52
2022/10/22 06:48:56;;;;;;;2.85;1.45;;;16.50;76.20;;;;;;4800615;29;20049;-49
2022/10/22 06:51:23;;;;;;;4.32;1.70;;;16.50;75.60;;;;;;4800459;29;20054;-52
2022/10/22 06:53:50;;;;;;;2.78;1.70;;;16.50;75.40;;;;;;4803217;29;20516;-50
2022/10/22 06:56:20;;;;;;;3.40;1.45;;;16.50;75.40;;;;;;4799286;29;20043;-50
2022/10/22 06:58:51;;;;;;;5.35;1.88;;;16.50;75.40;;;;;;4802187;29;20123;-50
2022/10/22 07:01:21;;;;;;;2.58;1.35;;;16.50;75.40;;;;;;4802579;29;20207;-50
2022/10/22 07:03:50;;;;;;;2.90;2.33;;;16.50;75.30;;;;;;4799362;29;20747;-53
2022/10/22 07:06:19;;;;;;;7.45;1.67;;;16.50;75.20;;;;;;4802337;29;20139;-51
2022/10/22 07:08:45;;;;;;;2.63;1.40;;;16.50;75.20;;;;;;4800665;29;20053;-51
2022/10/22 07:11:15;;;;;;;2.92;1.42;;;16.50;75.10;;;;;;4801150;29;20133;-52
2022/10/22 07:13:42;;;;;;;1.75;1.17;;;16.60;75.90;;;;;;4797453;29;20043;-53
2022/10/22 07:16:10;;;;;;;2.92;1.63;;;16.60;75.20;;;;;;4799740;29;20508;-53
2022/10/22 07:18:40;;;;;;;3.47;1.55;;;16.60;75.40;;;;;;4803815;29;20096;-53
2022/10/22 07:21:09;;;;;;;4.28;1.60;;;16.70;75.60;;;;;;4802357;29;20727;-53
2022/10/22 07:23:37;;;;;;;4.95;1.38;;;16.70;75.60;;;;;;4802384;29;20054;-53
2022/10/22 07:26:08;;;;;;;3.45;1.23;;;16.80;75.70;;;;;;4800660;29;20429;-52
2022/10/22 07:28:38;;;;;;;2.25;1.15;;;16.80;76.20;;;;;;4802615;29;20080;-50
2022/10/22 07:31:06;;;;;;;3.47;1.40;;;16.90;75.40;;;;;;4802325;29;20070;-52
2022/10/22 07:33:33;;;;;;;4.00;1.65;;;17.00;75.20;;;;;;4798295;29;20050;-52
2022/10/22 07:36:05;;;;;;;5.18;1.17;;;17.00;75.00;;;;;;4806480;29;20073;-51
2022/10/22 07:38:37;;;;;;;3.42;1.25;;;17.10;74.80;;;;;;4807243;29;20058;-53
2022/10/22 07:41:03;;;;;;;3.15;1.23;;;17.20;74.60;;;;;;4806246;29;20134;-52
2022/10/22 07:43:36;;;;;;;3.33;1.90;;;17.30;74.40;;;;;;4804646;29;20054;-55
2022/10/22 07:46:03;;;;;;;3.20;1.40;;;17.30;74.10;;;;;;4806213;29;20401;-53
2022/10/22 07:48:32;;;;;;;5.05;2.03;;;17.40;73.90;;;;;;4807282;29;20112;-52
2022/10/22 07:50:58;;;;;;;2.45;1.55;;;17.40;73.70;;;;;;4804342;29;20054;-54
2022/10/22 07:53:25;;;;;;;3.08;1.70;;;17.40;73.50;;;;;;4803032;29;20057;-50
2022/10/22 07:55:54;;;;;;;4.70;2.10;;;17.40;73.20;;;;;;4806079;29;20095;-54
2022/10/22 07:58:21;;;;;;;2.17;1.50;;;17.50;73.20;;;;;;4806803;29;20053;-53
2022/10/22 08:00:53;;;;;;;4.78;1.70;;;17.50;73.20;;;;;;4799893;29;20071;-50
2022/10/22 08:03:20;;;;;;;2.03;1.08;;;17.50;73.20;;;;;;4806017;29;20219;-53
2022/10/22 08:05:47;;;;;;;5.18;1.40;;;17.60;73.30;;;;;;4805492;29;20055;-51
2022/10/22 08:08:15;;;;;;;4.28;1.30;;;17.60;73.20;;;;;;4824730;29;20054;-51
2022/10/22 08:10:49;;;;;;;7.18;1.30;;;17.70;73.30;;;;;;4804040;29;20042;-50
2022/10/22 08:13:16;;;;;;;6.40;1.50;;;17.70;72.90;;;;;;4806116;29;20047;-54
2022/10/22 08:15:43;;;;;;;4.80;1.17;;;17.70;72.70;;;;;;4805562;29;20046;-52
2022/10/22 08:18:17;;;;;;;4.47;1.50;;;17.70;72.50;;;;;;4806220;29;20096;-52
2022/10/22 08:20:43;;;;;;;4.75;2.28;;;17.70;72.50;;;;;;4804864;29;20038;-52
2022/10/22 08:23:10;;;;;;;5.10;1.70;;;17.70;72.60;;;;;;4805759;29;20049;-54
2022/10/22 08:25:39;;;;;;;4.72;1.42;;;17.70;72.90;;;;;;4804304;29;20082;-54
2022/10/22 08:28:05;;;;;;;4.10;1.55;;;17.70;73.20;;;;;;4803416;29;20053;-49
2022/10/22 08:30:32;;;;;;;3.50;1.63;;;17.80;73.40;;;;;;4799339;29;20127;-51
2022/10/22 08:32:59;;;;;;;4.18;1.45;;;17.90;73.40;;;;;;4805227;29;20034;-54
2022/10/22 08:35:26;;;;;;;4.80;1.88;;;18.00;73.30;;;;;;4796072;29;20592;-51
2022/10/22 08:37:52;;;;;;;5.72;1.60;;;18.10;73.00;;;;;;4806121;29;20099;-52
2022/10/22 08:40:31;;;;;;;2.67;1.25;;;18.10;72.70;;;;;;4787039;29;20035;-50
2022/10/22 08:43:45;;;;;;;4.10;1.38;;;18.20;72.50;;;;;;4800273;29;20051;-55
2022/10/22 08:46:31;;;;;;;5.38;1.58;;;18.40;72.10;;;;;;4795140;29;20058;-53
2022/10/22 08:49:00;;;;;;;4.88;1.30;;;18.50;72.00;;;;;;4800574;29;20046;-55
2022/10/22 08:51:31;;;;;;;2.67;1.23;;;18.50;71.90;;;;;;4803483;29;20603;-51
2022/10/22 08:54:26;;;;;;;4.18;1.55;;;18.60;71.20;;;;;;4804563;29;20049;-54
2022/10/22 08:57:05;;;;;;;1.85;1.10;;;18.70;71.00;;;;;;4794248;29;20057;-50
2022/10/22 08:59:46;;;;;;;6.07;2.33;;;18.70;70.70;;;;;;4800242;29;20424;-53
2022/10/22 09:02:30;;;;;;;5.80;1.67;;;18.80;70.50;;;;;;4802477;29;20049;-51
2022/10/22 09:05:22;;;;;;;6.43;1.33;;;18.80;70.20;;;;;;4805332;29;20054;-52
2022/10/22 09:07:49;;;;;;;10.63;3.17;;;18.90;70.00;;;;;;4798532;29;20050;-53
2022/10/22 09:10:24;;;;;;;5.72;1.55;;;19.00;70.20;;;;;;4804121;29;20048;-51
2022/10/22 09:12:50;;;;;;;3.17;1.10;;;19.00;69.90;;;;;;4804556;29;20519;-54
2022/10/22 09:15:18;;;;;;;4.05;1.55;;;19.10;70.00;;;;;;4801264;29;20129;-51
2022/10/22 09:18:01;;;;;;;3.25;2.00;;;19.10;69.90;;;;;;4806043;29;20053;-51
2022/10/22 09:20:37;;;;;;;3.28;1.30;;;19.20;69.80;;;;;;4805083;29;20431;-50
2022/10/22 09:23:21;;;;;;;3.65;1.38;;;19.30;69.10;;;;;;4804753;29;20051;-50
2022/10/22 09:25:50;;;;;;;4.15;1.38;;;19.30;69.00;;;;;;4800226;29;20053;-51
2022/10/22 09:28:16;;;;;;;5.47;1.50;;;19.30;68.80;;;;;;4804627;29;20117;-52
2022/10/22 09:30:44;;;;;;;4.18;1.05;;;19.40;68.90;;;;;;4803360;29;20082;-50
2022/10/22 09:33:26;;;;;;;4.63;1.17;;;19.40;68.60;;;;;;4804252;29;20049;-52
2022/10/22 09:35:56;;;;;;;3.97;1.33;;;19.50;68.40;;;;;;4800286;29;20501;-55
2022/10/22 09:38:28;;;;;;;3.05;0.98;;;19.50;68.80;;;;;;4804572;29;20046;-53
2022/10/22 09:40:56;;;;;;;3.05;0.98;;;19.60;68.90;;;;;;4802179;29;20061;-50
2022/10/22 09:43:23;;;;;;;3.28;1.05;;;19.60;68.50;;;;;;4801032;29;20043;-52
2022/10/22 09:45:59;;;;;;;4.45;0.98;;;19.70;68.30;;;;;;4802905;29;20047;-52
2022/10/22 09:48:40;;;;;;;4.50;1.23;;;19.80;67.80;;;;;;4804086;29;20059;-51
2022/10/22 09:51:34;;;;;;;2.67;1.10;;;19.90;67.60;;;;;;4801403;29;20509;-51
2022/10/22 09:54:12;;;;;;;5.18;1.00;;;20.00;67.50;;;;;;4802318;29;20050;-53
2022/10/22 09:56:42;;;;;;;3.40;2.00;;;20.00;67.40;;;;;;4802036;29;20573;-54
2022/10/22 09:59:15;;;;;;;3.22;0.85;;;20.10;67.20;;;;;;4801428;29;20165;-52
2022/10/22 10:01:43;;;;;;;5.80;1.25;;;20.10;66.80;;;;;;4798083;29;20099;-52
2022/10/22 10:04:15;;;;;;;4.47;1.17;;;20.10;66.50;;;;;;4797166;29;20038;-50
2022/10/22 10:06:43;;;;;;;2.42;1.25;;;20.20;66.10;;;;;;4803577;29;20081;-52
2022/10/22 10:09:32;;;;;;;4.97;1.15;;;20.20;66.00;;;;;;4803319;29;20475;-55
2022/10/22 10:12:15;;;;;;;3.78;1.17;;;20.30;65.50;;;;;;4800855;29;20040;-50
2022/10/22 10:15:02;;;;;;;3.72;1.85;;;20.30;65.30;;;;;;4802722;29;20043;-54
2022/10/22 10:17:39;;;;;;;3.38;0.88;;;20.30;64.70;;;;;;4810820;29;20046;-55
2022/10/22 10:20:09;;;;;;;2.60;0.98;;;20.40;64.90;;;;;;4807937;29;20437;-51
2022/10/22 10:22:43;;;;;;;4.03;1.20;;;20.40;65.00;;;;;;4799262;29;20327;-54
2022/10/22 10:25:19;;;;;;;4.82;1.13;;;20.40;64.30;;;;;;4801927;29;20047;-54
2022/10/22 10:28:10;;;;;;;4.25;1.13;;;20.50;64.30;;;;;;4785136;29;20055;-50
2022/10/22 10:30:49;;;;;;;2.30;1.05;;;20.50;64.50;;;;;;4796541;29;20077;-50
2022/10/22 10:33:43;;;;;;;3.88;1.27;;;20.50;64.50;;;;;;4802969;29;20050;-51
2022/10/22 10:36:57;;;;;;;2.40;1.08;;;20.60;64.70;;;;;;4800043;29;20047;-52
2022/10/22 10:39:31;;;;;;;1.95;1.00;;;20.70;64.00;;;;;;4803509;29;20123;-54
2022/10/22 10:42:14;;;;;;;1.95;0.75;;;20.70;64.00;;;;;;4799712;29;20047;-51
2022/10/22 10:44:51;;;;;;;4.07;1.25;;;20.70;63.40;;;;;;4801840;29;20473;-51
2022/10/22 10:47:44;;;;;;;3.38;0.75;;;20.80;63.30;;;;;;4801865;29;20058;-51
2022/10/22 10:50:38;;;;;;;5.07;2.00;;;20.80;62.80;;;;;;4800059;29;20058;-53
2022/10/22 10:53:24;;;;;;;4.07;1.13;;;20.80;63.10;;;;;;4797377;29;20042;-51
2022/10/22 10:56:02;;;;;;;4.18;0.93;;;20.80;62.70;;;;;;4802312;29;20428;-52
2022/10/22 10:58:45;;;;;;;1.90;0.60;;;20.80;62.30;;;;;;4800147;29;20046;-53
2022/10/22 11:01:36;;;;;;;2.97;0.95;;;20.80;62.60;;;;;;4801470;29;20053;-54
2022/10/22 11:04:14;;;;;;;2.08;1.15;;;20.80;62.30;;;;;;4802954;29;20053;-50
2022/10/22 11:06:44;;;;;;;2.45;0.88;;;20.80;62.80;;;;;;4799260;29;20038;-53
2022/10/22 11:09:29;;;;;;;3.03;0.95;;;20.80;63.00;;;;;;4801713;29;20450;-53
2022/10/22 11:12:00;;;;;;;5.32;1.40;;;20.80;62.50;;;;;;4806156;29;20051;-52
2022/10/22 11:14:50;;;;;;;3.95;0.57;;;20.80;62.60;;;;;;4805771;29;20057;-52
2022/10/22 11:17:19;;;;;;;3.83;0.88;;;20.80;62.10;;;;;;4798938;29;20063;-53
2022/10/22 11:20:05;;;;;;;1.67;0.60;;;20.80;62.60;;;;;;4802973;29;20126;-50
2022/10/22 11:22:37;;;;;;;4.45;1.05;;;20.80;62.10;;;;;;4806121;29;20686;-51
2022/10/22 11:25:41;;;;;;;2.75;0.95;;;20.80;62.20;;;;;;4806278;29;20130;-54
2022/10/22 11:28:32;;;;;;;3.33;0.90;;;20.80;62.10;;;;;;4804768;29;20049;-53
2022/10/22 11:31:02;;;;;;;3.75;0.75;;;20.90;62.10;;;;;;4804692;29;20509;-51
2022/10/22 11:33:42;;;;;;;4.95;1.45;;;20.80;61.90;;;;;;4806826;29;20043;-51
2022/10/22 11:36:10;;;;;;;3.63;1.15;;;20.80;61.50;;;;;;4800952;29;20134;-50
2022/10/22 11:38:37;;;;;;;3.65;1.20;;;20.80;61.90;;;;;;4802082;29;20480;-53
2022/10/22 11:41:10;;;;;;;3.20;0.98;;;20.80;61.80;;;;;;4804899;29;20039;-52
2022/10/22 11:44:09;;;;;;;3.65;1.08;;;20.80;61.50;;;;;;4806133;29;20057;-51
2022/10/22 11:46:53;;;;;;;3.20;0.57;;;20.80;61.50;;;;;;4793027;29;20058;-53
2022/10/22 11:49:42;;;;;;;3.63;0.90;;;20.80;61.70;;;;;;4804205;29;20042;-52
2022/10/22 11:52:25;;;;;;;3.45;0.88;;;20.90;62.00;;;;;;4812957;29;20718;-51
2022/10/22 11:54:59;;;;;;;1.88;1.17;;;20.90;61.60;;;;;;4796039;29;20111;-51
2022/10/22 11:57:35;;;;;;;3.78;0.77;;;20.90;61.50;;;;;;4804370;29;20038;-50
2022/10/22 12:00:26;;;;;;;5.80;1.23;;;21.00;62.10;;;;;;4804978;29;20066;-55
2022/10/22 12:03:14;;;;;;;3.47;0.98;;;21.00;61.50;;;;;;4804982;29;20070;-51
2022/10/22 12:05:40;;;;;;;2.85;0.77;;;21.10;61.70;;;;;;4801363;29;20435;-52
2022/10/22 12:08:23;;;;;;;3.42;0.82;;;21.10;61.80;;;;;;4805769;29;20047;-51
2022/10/22 12:11:04;;;;;;;3.15;0.88;;;21.20;61.60;;;;;;4804750;29;20060;-51
2022/10/22 12:13:58;;;;;;;4.20;1.17;;;21.30;61.60;;;;;;4800721;29;20507;-52
2022/10/22 12:16:28;;;;;;;3.58;1.25;;;21.50;61.40;;;;;;4802040;29;20158;-55
2022/10/22 12:19:21;;;;;;;1.65;0.93;;;21.50;61.30;;;;;;4804900;29;20043;-54
2022/10/22 12:21:53;;;;;;;2.60;0.90;;;21.70;61.20;;;;;;4804787;29;20134;-52
2022/10/22 12:24:22;;;;;;;2.83;0.60;;;21.80;60.90;;;;;;4801271;29;20137;-50
2022/10/22 12:26:51;;;;;;;2.40;0.80;;;21.90;61.00;;;;;;4798314;29;20648;-51
2022/10/22 12:29:21;;;;;;;6.47;0.90;;;22.00;60.70;;;;;;4805038;29;20062;-52
2022/10/22 12:31:48;;;;;;;4.07;0.77;;;22.20;60.50;;;;;;4802829;29;20130;-53
2022/10/22 12:34:17;;;;;;;2.20;0.75;;;22.20;60.00;;;;;;4799184;29;20386;-50
2022/10/22 12:36:46;;;;;;;3.05;1.33;;;22.40;59.80;;;;;;4804743;29;20050;-54
2022/10/22 12:39:23;;;;;;;2.13;0.60;;;22.50;59.00;;;;;;4804380;29;20034;-51
2022/10/22 12:41:52;;;;;;;2.92;1.20;;;22.60;58.60;;;;;;4802855;29;20074;-54
2022/10/22 12:44:19;;;;;;;2.33;0.60;;;22.60;58.10;;;;;;4801751;29;20054;-54
2022/10/22 12:46:47;;;;;;;3.35;0.98;;;22.70;58.00;;;;;;4804856;29;20382;-50
2022/10/22 12:49:22;;;;;;;4.15;1.45;;;22.70;57.70;;;;;;4804622;29;20067;-52
2022/10/22 12:51:49;;;;;;;0.95;0.40;;;22.80;57.40;;;;;;4800698;29;20055;-55
2022/10/22 12:54:27;;;;;;;1.85;0.70;;;22.80;57.70;;;;;;4803304;29;20042;-52
2022/10/22 12:56:55;;;;;;;1.67;0.68;;;22.90;56.70;;;;;;4803727;29;20039;-54
2022/10/22 12:59:35;;;;;;;1.40;0.50;;;22.90;57.10;;;;;;4803963;29;20054;-54
2022/10/22 13:02:23;;;;;;;1.92;1.58;;;22.90;56.40;;;;;;4804456;29;20043;-54
2022/10/22 13:05:15;;;;;;;2.50;0.77;;;22.90;55.90;;;;;;4804518;29;20076;-53
2022/10/22 13:08:11;;;;;;;;;;;22.80;55.90;;;;;;4801733;29;20070;-52
2022/10/22 13:10:40;;;;;;;2.30;0.55;;;22.80;57.10;;;;;;4802872;29;19933;-53
2022/10/22 13:13:31;;;;;;;2.03;0.75;;;22.70;56.30;;;;;;4804204;29;20225;-53
2022/10/22 13:16:13;;;;;;;1.77;0.50;;;22.50;56.10;;;;;;4803676;29;20096;-50
2022/10/22 13:18:40;;;;;;;4.85;1.00;;;22.40;56.50;;;;;;4814597;29;20046;-51
2022/10/22 13:21:28;;;;;;;4.07;0.47;;;22.30;57.30;;;;;;4801367;29;20042;-52